Accueil
METAR-TAF:

METAR-TAF

Aéroports :

Base aérienne de Kecskemét

Kecskemét, Hongrie

latitude: 46-55N, longitude: 019-45E, altitude: 113 m

Observation

Le bulletin a été fait il y a 29 minutes, à 23:45 UTC
Vent 4 kt de nord
Température 18°C
Humidité 68%
Pression 1017 hPa
Visibilité 10 km ou plus
pas de nuages en-dessous de 1500 mètres et pas de cumulonimbus.

METAR: LHKE 162345Z 01004KT CAVOK 18/12 Q1017 R12/01//95 NOSIG RMK BLU

Heure: 02:14 (00:14 UTC)

Prévision

Le bulletin a été fait il y a 3 heures et 59 minutes, à 20:15 UTC
Prévision valable du 16 à 21 UTC au 17 à 06 UTC
Vent 3 kt de direction variable
Visibilité 10 km ou plus
pas de nuages en-dessous de 1500 mètres et pas de cumulonimbus.
Evoluant progressivement
du 16 à 23 UTC au 17 à 01 UTC
Vent 7 kt de nord-est

TAF: LHKE 162015Z 1621/1706 VRB03KT CAVOK BECMG 1623/1701 04007KT

Observations et prévisions météorologiques de plus de 4000 aéroports (messages METAR et TAF).

Les stations disponibles sont représentées par des disques jaunes et rouges sur la carte.

Passer la souris dessus pour voir le nom de la station.

Cliquer dessus pour voir les observations et prévisions météorologiques.

Pour changer de carte: cliquez sur les boutons verts avec une croix noire pour zoomer, sur le bouton vert avec un tiret pour effectuer un zoom arrière, ou sur les flèches vertes pour les cartes adjacentes.


METAR-TAF: